Time,TemperatureF,DewpointF,PressureIn,WindDirection,WindDirectionDegrees,WindSpeedMPH,WindSpeedGustMPH,Humidity,HourlyPrecipIn,Conditions,Clouds,dailyrainin,SoftwareType,DateUTC
2013-07-26 00:02:00,71.5,65.3,29.98,NNW,341,19.0,43.0,81,0.00,,,0.00,Weather View 32 v70,2013-07-26 10:02:00,
2013-07-26 00:07:00,71.4,65.2,29.97,North,355,19.0,43.0,81,0.00,,,0.00,Weather View 32 v70,2013-07-26 10:07:00,
2013-07-26 00:12:00,71.4,65.2,29.94,North,8,29.0,43.0,81,0.00,,,0.00,Weather View 32 v70,2013-07-26 10:12:00,
2013-07-26 00:17:00,71.3,65.1,29.97,North,8,18.0,43.0,81,0.00,,,0.00,Weather View 32 v70,2013-07-26 10:17:00,
2013-07-26 00:22:00,71.2,65.4,29.96,NNW,346,25.0,43.0,82,0.00,,,0.00,Weather View 32 v70,2013-07-26 10:22:00,
2013-07-26 00:27:00,71.3,65.5,29.95,North,1,28.0,43.0,82,0.00,,,0.00,Weather View 32 v70,2013-07-26 10:27:00,
2013-07-26 00:32:00,71.3,65.1,29.94,NNE,12,29.0,43.0,81,0.00,,,0.00,Weather View 32 v70,2013-07-26 10:32:00,
2013-07-26 00:37:00,71.6,65.1,29.96,North,3,29.0,43.0,80,0.00,,,0.00,Weather View 32 v70,2013-07-26 10:37:00,
2013-07-26 00:42:00,71.4,65.2,29.95,NNW,345,24.0,43.0,81,0.00,,,0.00,Weather View 32 v70,2013-07-26 10:42:00,
2013-07-26 00:47:00,71.4,65.2,29.97,NNE,20,26.0,43.0,81,0.00,,,0.00,Weather View 32 v70,2013-07-26 10:47:00,
2013-07-26 00:52:00,71.4,64.9,29.96,North,349,25.0,43.0,80,0.00,,,0.00,Weather View 32 v70,2013-07-26 10:52:00,
2013-07-26 00:57:00,71.6,64.7,29.95,NNE,14,22.0,40.0,79,0.00,,,0.00,Weather View 32 v70,2013-07-26 10:57:00,
2013-07-26 01:02:00,71.5,65.0,29.96,NNE,28,23.0,40.0,80,0.00,,,0.00,Weather View 32 v70,2013-07-26 11:02:00,
2013-07-26 01:07:00,71.5,65.3,29.96,North,356,29.0,40.0,81,0.00,,,0.00,Weather View 32 v70,2013-07-26 11:07:00,
2013-07-26 01:12:00,71.2,65.8,29.96,North,355,29.0,40.0,83,0.00,,,0.00,Weather View 32 v70,2013-07-26 11:12:00,
2013-07-26 01:18:00,71.0,65.9,29.94,North,359,26.0,40.0,84,0.00,,,0.00,Weather View 32 v70,2013-07-26 11:18:00,
2013-07-26 01:23:00,71.0,65.2,29.96,North,355,31.0,40.0,82,0.00,,,0.00,Weather View 32 v70,2013-07-26 11:23:00,
2013-07-26 01:28:00,71.2,65.4,29.96,North,355,24.0,40.0,82,0.00,,,0.00,Weather View 32 v70,2013-07-26 11:28:00,
2013-07-26 01:33:00,71.1,65.3,29.96,NNE,14,28.0,40.0,82,0.00,,,0.00,Weather View 32 v70,2013-07-26 11:33:00,
2013-07-26 01:38:00,71.1,65.7,29.95,NNE,18,17.0,40.0,83,0.00,,,0.00,Weather View 32 v70,2013-07-26 11:38:00,
2013-07-26 01:43:00,71.0,65.6,29.95,NNW,328,24.0,40.0,83,0.00,,,0.00,Weather View 32 v70,2013-07-26 11:43:00,
2013-07-26 01:48:00,70.9,65.5,29.95,NNE,23,20.0,40.0,83,0.00,,,0.00,Weather View 32 v70,2013-07-26 11:48:00,
2013-07-26 01:53:00,71.0,64.9,29.93,NNW,347,24.0,40.0,81,0.00,,,0.00,Weather View 32 v70,2013-07-26 11:53:00,
2013-07-26 01:58:00,71.2,65.0,29.95,North,358,30.0,40.0,81,0.00,,,0.00,Weather View 32 v70,2013-07-26 11:58:00,
2013-07-26 02:03:00,71.2,65.0,29.93,North,351,22.0,40.0,81,0.00,,,0.00,Weather View 32 v70,2013-07-26 12:03:00,
2013-07-26 02:08:00,71.1,64.9,29.95,North,10,21.0,40.0,81,0.00,,,0.00,Weather View 32 v70,2013-07-26 12:08:00,
2013-07-26 02:13:00,71.2,64.3,29.95,North,5,26.0,36.0,79,0.00,,,0.00,Weather View 32 v70,2013-07-26 12:13:00,
2013-07-26 02:18:00,71.5,64.3,29.96,North,359,12.0,36.0,78,0.00,,,0.00,Weather View 32 v70,2013-07-26 12:18:00,
2013-07-26 02:23:00,71.5,64.3,29.95,North,357,24.0,36.0,78,0.00,,,0.00,Weather View 32 v70,2013-07-26 12:23:00,
2013-07-26 02:28:00,71.7,63.7,29.95,NNW,337,27.0,36.0,76,0.00,,,0.00,Weather View 32 v70,2013-07-26 12:28:00,
2013-07-26 02:33:00,71.9,63.5,29.95,NNE,13,25.0,36.0,75,0.00,,,0.00,Weather View 32 v70,2013-07-26 12:33:00,
2013-07-26 02:38:00,71.7,63.7,29.95,NNW,341,21.0,36.0,76,0.00,,,0.00,Weather View 32 v70,2013-07-26 12:38:00,
2013-07-26 02:43:00,71.6,63.6,29.94,NNW,333,25.0,36.0,76,0.00,,,0.00,Weather View 32 v70,2013-07-26 12:43:00,
2013-07-26 02:48:00,71.7,63.7,29.95,NNW,334,22.0,36.0,76,0.00,,,0.00,Weather View 32 v70,2013-07-26 12:48:00,
2013-07-26 02:53:00,71.7,63.7,29.96,NW,325,13.0,36.0,76,0.00,,,0.00,Weather View 32 v70,2013-07-26 12:53:00,
2013-07-26 02:58:00,72.2,63.0,29.95,NNW,328,18.0,34.0,73,0.00,,,0.00,Weather View 32 v70,2013-07-26 12:58:00,
2013-07-26 03:03:00,72.3,63.1,29.95,NNW,335,17.0,33.0,73,0.00,,,0.00,Weather View 32 v70,2013-07-26 13:03:00,
2013-07-26 03:08:00,72.1,62.5,29.96,North,350,14.0,33.0,72,0.00,,,0.00,Weather View 32 v70,2013-07-26 13:08:00,
2013-07-26 03:13:00,72.0,62.8,29.95,North,10,22.0,33.0,73,0.00,,,0.00,Weather View 32 v70,2013-07-26 13:13:00,
2013-07-26 03:18:00,72.0,62.8,29.95,North,355,17.0,33.0,73,0.00,,,0.00,Weather View 32 v70,2013-07-26 13:18:00,
2013-07-26 03:23:00,72.3,62.7,29.94,North,357,22.0,33.0,72,0.00,,,0.00,Weather View 32 v70,2013-07-26 13:23:00,
2013-07-26 03:28:00,72.0,62.8,29.94,North,353,18.0,33.0,73,0.00,,,0.00,Weather View 32 v70,2013-07-26 13:28:00,
2013-07-26 03:33:00,71.7,63.7,29.92,North,1,31.0,37.0,76,0.00,,,0.00,Weather View 32 v70,2013-07-26 13:33:00,
2013-07-26 03:38:00,71.5,63.9,29.94,NNW,330,34.0,37.0,77,0.00,,,0.00,Weather View 32 v70,2013-07-26 13:38:00,
2013-07-26 03:43:00,71.2,64.3,29.94,North,351,30.0,37.0,79,0.00,,,0.00,Weather View 32 v70,2013-07-26 13:43:00,
2013-07-26 03:48:00,71.1,64.2,29.95,North,1,16.0,37.0,79,0.00,,,0.00,Weather View 32 v70,2013-07-26 13:48:00,
2013-07-26 03:53:00,71.0,64.5,29.96,North,359,15.0,37.0,80,0.00,,,0.00,Weather View 32 v70,2013-07-26 13:53:00,
2013-07-26 03:58:00,70.9,64.4,29.96,NNW,336,16.0,37.0,80,0.00,,,0.00,Weather View 32 v70,2013-07-26 13:58:00,
2013-07-26 04:03:00,71.0,64.5,29.96,NW,314,15.0,37.0,80,0.00,,,0.00,Weather View 32 v70,2013-07-26 14:03:00,
2013-07-26 04:08:00,71.2,64.3,29.95,NNW,346,13.0,37.0,79,0.00,,,0.00,Weather View 32 v70,2013-07-26 14:08:00,
2013-07-26 04:13:00,71.3,64.4,29.94,North,351,20.0,37.0,79,0.00,,,0.00,Weather View 32 v70,2013-07-26 14:13:00,
2013-07-26 04:18:00,71.5,63.9,29.94,North,2,28.0,37.0,77,0.00,,,0.00,Weather View 32 v70,2013-07-26 14:18:00,
2013-07-26 04:23:00,71.5,63.9,29.93,North,4,28.0,37.0,77,0.00,,,0.00,Weather View 32 v70,2013-07-26 14:23:00,
2013-07-26 04:28:00,71.8,63.8,29.94,North,349,32.0,37.0,76,0.00,,,0.00,Weather View 32 v70,2013-07-26 14:28:00,
2013-07-26 04:33:00,71.8,63.8,29.95,North,349,18.0,37.0,76,0.00,,,0.00,Weather View 32 v70,2013-07-26 14:33:00,
2013-07-26 04:38:00,71.5,63.9,29.95,North,8,13.0,37.0,77,0.00,,,0.00,Weather View 32 v70,2013-07-26 14:38:00,
2013-07-26 04:43:00,71.3,63.7,29.96,NNE,23,21.0,37.0,77,0.00,,,0.00,Weather View 32 v70,2013-07-26 14:43:00,
2013-07-26 04:48:00,71.6,64.0,29.96,NNE,16,23.0,37.0,77,0.00,,,0.00,Weather View 32 v70,2013-07-26 14:48:00,
2013-07-26 04:53:00,71.8,63.8,29.95,NNW,337,30.0,37.0,76,0.00,,,0.00,Weather View 32 v70,2013-07-26 14:53:00,
2013-07-26 04:58:00,72.0,63.6,29.95,North,6,24.0,37.0,75,0.00,,,0.00,Weather View 32 v70,2013-07-26 14:58:00,
2013-07-26 05:03:00,72.0,63.6,29.96,NE,50,13.0,37.0,75,0.00,,,0.00,Weather View 32 v70,2013-07-26 15:03:00,
2013-07-26 05:08:00,71.9,63.9,29.95,North,355,16.0,37.0,76,0.00,,,0.00,Weather View 32 v70,2013-07-26 15:08:00,
2013-07-26 05:13:00,71.9,63.5,29.95,NNW,342,14.0,37.0,75,0.00,,,0.00,Weather View 32 v70,2013-07-26 15:13:00,
2013-07-26 05:18:00,71.9,63.5,29.96,NW,316,8.0,37.0,75,0.00,,,0.00,Weather View 32 v70,2013-07-26 15:18:00,
2013-07-26 05:23:00,71.8,63.8,29.96,North,352,11.0,37.0,76,0.00,,,0.00,Weather View 32 v70,2013-07-26 15:23:00,
2013-07-26 05:28:00,71.8,63.4,29.96,NNW,344,29.0,37.0,75,0.00,,,0.00,Weather View 32 v70,2013-07-26 15:28:00,
2013-07-26 05:33:00,72.0,63.6,29.96,North,359,16.0,33.0,75,0.00,,,0.00,Weather View 32 v70,2013-07-26 15:33:00,
2013-07-26 05:38:00,72.0,63.6,29.97,North,8,14.0,32.0,75,0.00,,,0.00,Weather View 32 v70,2013-07-26 15:38:00,
2013-07-26 05:44:00,72.0,63.6,29.97,North,351,22.0,32.0,75,0.00,,,0.00,Weather View 32 v70,2013-07-26 15:44:00,
2013-07-26 05:49:00,72.0,63.6,29.97,North,10,12.0,32.0,75,0.00,,,0.00,Weather View 32 v70,2013-07-26 15:49:00,
2013-07-26 05:54:00,71.7,64.1,29.97,NW,318,11.0,32.0,77,0.00,,,0.00,Weather View 32 v70,2013-07-26 15:54:00,
2013-07-26 05:59:00,71.5,63.9,29.96,NNE,21,8.0,32.0,77,0.00,,,0.00,Weather View 32 v70,2013-07-26 15:59:00,
2013-07-26 06:04:00,71.6,64.0,29.97,NW,322,15.0,29.0,77,0.00,,,0.00,Weather View 32 v70,2013-07-26 16:04:00,
2013-07-26 06:09:00,71.6,64.0,29.97,North,358,9.0,29.0,77,0.00,,,0.00,Weather View 32 v70,2013-07-26 16:09:00,
2013-07-26 06:14:00,71.6,64.4,29.96,NNE,17,19.0,29.0,78,0.00,,,0.00,Weather View 32 v70,2013-07-26 16:14:00,
2013-07-26 06:19:00,71.2,64.7,29.97,NNW,347,15.0,29.0,80,0.00,,,0.00,Weather View 32 v70,2013-07-26 16:19:00,
2013-07-26 06:24:00,71.3,64.8,29.97,NNW,328,17.0,29.0,80,0.00,,,0.00,Weather View 32 v70,2013-07-26 16:24:00,
2013-07-26 06:29:00,71.3,64.8,29.97,NNE,22,13.0,29.0,80,0.00,,,0.00,Weather View 32 v70,2013-07-26 16:29:00,
2013-07-26 06:34:00,71.1,64.6,29.98,North,6,13.0,28.0,80,0.00,,,0.00,Weather View 32 v70,2013-07-26 16:34:00,
2013-07-26 06:39:00,70.6,65.2,29.98,NNW,334,18.0,30.0,83,0.00,,,0.00,Weather View 32 v70,2013-07-26 16:39:00,
2013-07-26 06:44:00,70.6,65.2,29.99,North,351,17.0,30.0,83,0.00,,,0.00,Weather View 32 v70,2013-07-26 16:44:00,
2013-07-26 06:49:00,70.5,65.1,29.98,North,6,26.0,30.0,83,0.00,,,0.00,Weather View 32 v70,2013-07-26 16:49:00,
2013-07-26 06:54:00,70.4,65.3,29.99,NNW,330,11.0,30.0,84,0.00,,,0.00,Weather View 32 v70,2013-07-26 16:54:00,
2013-07-26 06:59:00,70.7,65.3,29.99,NNW,344,13.0,30.0,83,0.00,,,0.00,Weather View 32 v70,2013-07-26 16:59:00,
2013-07-26 07:04:00,71.2,65.4,30.00,NNW,328,12.0,30.0,82,0.00,,,0.00,Weather View 32 v70,2013-07-26 17:04:00,
2013-07-26 07:09:00,71.3,65.1,30.00,NNW,330,15.0,30.0,81,0.00,,,0.00,Weather View 32 v70,2013-07-26 17:09:00,
2013-07-26 07:14:00,72.0,64.7,29.99,NNW,344,10.0,30.0,78,0.00,,,0.00,Weather View 32 v70,2013-07-26 17:14:00,
2013-07-26 07:19:00,72.7,64.3,29.99,NNE,22,11.0,30.0,75,0.00,,,0.00,Weather View 32 v70,2013-07-26 17:19:00,
2013-07-26 07:24:00,73.1,64.3,29.99,NNE,20,15.0,30.0,74,0.00,,,0.00,Weather View 32 v70,2013-07-26 17:24:00,
2013-07-26 07:30:00,73.5,64.3,29.99,North,359,13.0,30.0,73,0.00,,,0.00,Weather View 32 v70,2013-07-26 17:30:00,
2013-07-26 07:35:00,73.8,63.8,30.00,NE,45,13.0,30.0,71,0.00,,,0.00,Weather View 32 v70,2013-07-26 17:35:00,
2013-07-26 07:41:00,73.9,64.3,29.99,NNW,338,11.0,27.0,72,0.00,,,0.00,Weather View 32 v70,2013-07-26 17:41:00,
2013-07-26 07:47:00,74.0,63.6,29.99,NNE,20,10.0,27.0,70,0.00,,,0.00,Weather View 32 v70,2013-07-26 17:47:00,
2013-07-26 07:53:00,74.0,63.6,29.98,NNE,32,18.0,23.0,70,0.00,,,0.00,Weather View 32 v70,2013-07-26 17:53:00,
2013-07-26 07:58:00,74.1,63.7,29.99,NNW,337,7.0,23.0,70,0.00,,,0.00,Weather View 32 v70,2013-07-26 17:58:00,
2013-07-26 08:00:00,74.1,64.1,30.00,NE,41,17.0,23.0,71,0.00,,,0.00,Weather View 32 v70,2013-07-26 18:00:00,
2013-07-26 08:04:00,73.9,64.3,29.99,North,1,13.0,24.0,72,0.00,,,0.00,Weather View 32 v70,2013-07-26 18:04:00,
2013-07-26 08:10:00,73.5,65.1,29.98,NNE,33,19.0,24.0,75,0.00,,,0.00,Weather View 32 v70,2013-07-26 18:10:00,
2013-07-26 08:17:00,73.7,64.9,29.98,North,4,22.0,24.0,74,0.00,,,0.00,Weather View 32 v70,2013-07-26 18:17:00,
2013-07-26 08:23:00,73.6,65.5,30.00,North,3,21.0,29.0,76,0.00,,,0.00,Weather View 32 v70,2013-07-26 18:23:00,
2013-07-26 08:28:00,73.6,65.9,30.00,North,351,15.0,29.0,77,0.00,,,0.00,Weather View 32 v70,2013-07-26 18:28:00,
2013-07-26 08:33:00,73.5,65.8,30.00,NNE,23,19.0,29.0,77,0.00,,,0.00,Weather View 32 v70,2013-07-26 18:33:00,
2013-07-26 08:35:00,73.6,65.9,29.99,NNE,18,22.0,29.0,77,0.00,,,0.00,Weather View 32 v70,2013-07-26 18:35:00,
2013-07-26 08:39:00,73.5,65.4,29.99,North,359,17.0,29.0,76,0.00,,,0.00,Weather View 32 v70,2013-07-26 18:39:00,
2013-07-26 08:40:00,73.7,65.6,29.99,North,360,21.0,29.0,76,0.00,,,0.00,Weather View 32 v70,2013-07-26 18:40:00,
2013-07-26 08:45:00,74.4,65.9,29.99,NNE,23,15.0,29.0,75,0.00,,,0.00,Weather View 32 v70,2013-07-26 18:45:00,
2013-07-26 08:47:00,74.5,66.0,29.99,NNE,24,17.0,29.0,75,0.00,,,0.00,Weather View 32 v70,2013-07-26 18:47:00,
2013-07-26 08:50:00,74.6,65.7,29.99,North,4,24.0,29.0,74,0.00,,,0.00,Weather View 32 v70,2013-07-26 18:50:00,
2013-07-26 08:54:00,74.5,65.6,29.99,North,4,23.0,29.0,74,0.00,,,0.00,Weather View 32 v70,2013-07-26 18:54:00,
2013-07-26 08:55:00,74.4,65.5,29.99,North,354,19.0,29.0,74,0.00,,,0.00,Weather View 32 v70,2013-07-26 18:55:00,
2013-07-26 08:59:00,74.0,65.2,29.99,North,7,17.0,29.0,74,0.00,,,0.00,Weather View 32 v70,2013-07-26 18:59:00,
2013-07-26 09:00:00,74.0,65.2,29.99,NNE,16,20.0,29.0,74,0.00,,,0.00,Weather View 32 v70,2013-07-26 19:00:00,
2013-07-26 09:02:00,74.2,65.3,29.99,NNE,14,22.0,29.0,74,0.00,,,0.00,Weather View 32 v70,2013-07-26 19:02:00,
2013-07-26 09:05:00,74.4,65.9,29.99,NNE,15,19.0,29.0,75,0.00,,,0.00,Weather View 32 v70,2013-07-26 19:05:00,
2013-07-26 09:07:00,74.2,65.7,29.99,North,355,20.0,29.0,75,0.00,,,0.00,Weather View 32 v70,2013-07-26 19:07:00,
2013-07-26 09:13:00,74.2,65.7,30.00,NNE,29,24.0,29.0,75,0.00,,,0.00,Weather View 32 v70,2013-07-26 19:13:00,
2013-07-26 09:20:00,74.3,66.2,29.98,NNE,16,12.0,31.0,76,0.00,,,0.00,Weather View 32 v70,2013-07-26 19:20:00,
2013-07-26 09:27:00,74.4,65.9,29.98,North,1,21.0,31.0,75,0.00,,,0.00,Weather View 32 v70,2013-07-26 19:27:00,
2013-07-26 09:35:00,74.4,67.1,29.98,North,10,22.0,31.0,78,0.00,,,0.00,Weather View 32 v70,2013-07-26 19:35:00,
2013-07-26 09:40:00,74.6,66.9,30.00,North,357,18.0,31.0,77,0.00,,,0.00,Weather View 32 v70,2013-07-26 19:40:00,
2013-07-26 09:42:00,74.6,67.3,30.00,North,7,25.0,31.0,78,0.00,,,0.00,Weather View 32 v70,2013-07-26 19:42:00,
2013-07-26 09:45:00,74.1,66.8,30.00,North,357,23.0,31.0,78,0.00,,,0.00,Weather View 32 v70,2013-07-26 19:45:00,
2013-07-26 09:47:00,73.9,66.9,29.99,NNE,16,20.0,31.0,79,0.00,,,0.00,Weather View 32 v70,2013-07-26 19:47:00,
2013-07-26 09:53:00,74.1,67.1,30.00,NNE,26,14.0,31.0,79,0.00,,,0.00,Weather View 32 v70,2013-07-26 19:53:00,
2013-07-26 09:58:00,74.0,66.7,29.99,North,4,14.0,31.0,78,0.00,,,0.00,Weather View 32 v70,2013-07-26 19:58:00,
2013-07-26 10:00:00,74.3,67.0,30.01,North,359,11.0,31.0,78,0.00,,,0.00,Weather View 32 v70,2013-07-26 20:00:00,
2013-07-26 10:04:00,74.8,66.7,30.01,NNE,19,12.0,31.0,76,0.00,,,0.00,Weather View 32 v70,2013-07-26 20:04:00,
2013-07-26 10:10:00,74.8,66.7,29.99,NNW,332,17.0,31.0,76,0.00,,,0.00,Weather View 32 v70,2013-07-26 20:10:00,
2013-07-26 10:15:00,74.5,67.2,30.00,NNE,12,19.0,31.0,78,0.00,,,0.00,Weather View 32 v70,2013-07-26 20:15:00,
2013-07-26 10:21:00,75.1,67.4,30.00,NE,41,20.0,31.0,77,0.00,,,0.00,Weather View 32 v70,2013-07-26 20:21:00,
2013-07-26 10:27:00,74.5,66.8,29.98,NNE,32,21.0,31.0,77,0.00,,,0.00,Weather View 32 v70,2013-07-26 20:27:00,
2013-07-26 10:30:00,74.4,67.1,30.00,North,350,27.0,31.0,78,0.00,,,0.00,Weather View 32 v70,2013-07-26 20:30:00,
2013-07-26 10:32:00,74.3,67.0,29.99,NNE,26,19.0,31.0,78,0.00,,,0.00,Weather View 32 v70,2013-07-26 20:32:00,
2013-07-26 10:35:00,74.2,66.1,29.98,North,11,32.0,32.0,76,0.00,,,0.00,Weather View 32 v70,2013-07-26 20:35:00,
2013-07-26 10:39:00,74.4,66.7,29.98,NNE,16,23.0,32.0,77,0.00,,,0.00,Weather View 32 v70,2013-07-26 20:39:00,
2013-07-26 10:40:00,74.7,66.6,29.99,North,9,26.0,32.0,76,0.00,,,0.00,Weather View 32 v70,2013-07-26 20:40:00,
2013-07-26 10:44:00,74.8,66.3,29.98,North,5,26.0,32.0,75,0.00,,,0.00,Weather View 32 v70,2013-07-26 20:44:00,
2013-07-26 10:49:00,75.2,67.1,30.00,North,6,24.0,32.0,76,0.00,,,0.00,Weather View 32 v70,2013-07-26 20:49:00,
2013-07-26 10:55:00,75.6,66.7,30.00,NNW,342,27.0,32.0,74,0.00,,,0.00,Weather View 32 v70,2013-07-26 20:55:00,
2013-07-26 11:00:00,75.3,67.2,29.99,NNE,22,20.0,32.0,76,0.00,,,0.00,Weather View 32 v70,2013-07-26 21:00:00,
2013-07-26 11:05:00,75.0,66.5,29.99,NNW,345,15.0,32.0,75,0.00,,,0.00,Weather View 32 v70,2013-07-26 21:05:00,
2013-07-26 11:15:00,74.9,66.4,30.00,NW,309,14.0,32.0,75,0.00,,,0.00,Weather View 32 v70,2013-07-26 21:15:00,
2013-07-26 11:20:00,75.5,67.4,30.00,North,355,9.0,32.0,76,0.00,,,0.00,Weather View 32 v70,2013-07-26 21:20:00,
2013-07-26 11:25:00,76.2,67.7,30.00,North,8,18.0,32.0,75,0.00,,,0.00,Weather View 32 v70,2013-07-26 21:25:00,
2013-07-26 11:30:00,75.6,67.1,30.00,NNW,337,18.0,32.0,75,0.00,,,0.00,Weather View 32 v70,2013-07-26 21:30:00,
2013-07-26 11:32:00,75.8,67.7,30.00,NNW,332,13.0,32.0,76,0.00,,,0.00,Weather View 32 v70,2013-07-26 21:32:00,
2013-07-26 11:35:00,75.9,67.4,29.99,WNW,301,13.0,32.0,75,0.00,,,0.00,Weather View 32 v70,2013-07-26 21:35:00,
2013-07-26 11:39:00,76.3,67.8,30.00,NNE,13,16.0,31.0,75,0.00,,,0.00,Weather View 32 v70,2013-07-26 21:39:00,
2013-07-26 11:45:00,76.4,67.9,30.00,North,357,14.0,31.0,75,0.00,,,0.00,Weather View 32 v70,2013-07-26 21:45:00,
2013-07-26 11:50:00,76.6,67.7,29.99,North,356,17.0,31.0,74,0.00,,,0.00,Weather View 32 v70,2013-07-26 21:50:00,
2013-07-26 11:55:00,76.4,67.5,29.99,NNE,31,23.0,31.0,74,0.00,,,0.00,Weather View 32 v70,2013-07-26 21:55:00,
2013-07-26 12:00:00,75.7,67.6,29.98,North,358,21.0,31.0,76,0.00,,,0.00,Weather View 32 v70,2013-07-26 22:00:00,
2013-07-26 12:06:00,75.6,67.5,29.98,North,358,26.0,31.0,76,0.00,,,0.00,Weather View 32 v70,2013-07-26 22:06:00,
2013-07-26 12:13:00,75.8,67.7,30.00,North,4,11.0,31.0,76,0.00,,,0.00,Weather View 32 v70,2013-07-26 22:13:00,
2013-07-26 12:20:00,76.5,68.0,29.99,NW,308,12.0,31.0,75,0.00,,,0.00,Weather View 32 v70,2013-07-26 22:20:00,
2013-07-26 12:27:00,77.3,68.3,30.00,NNE,33,11.0,31.0,74,0.00,,,0.00,Weather View 32 v70,2013-07-26 22:27:00,
2013-07-26 12:35:00,77.1,68.1,29.98,NNE,32,17.0,30.0,74,0.00,,,0.00,Weather View 32 v70,2013-07-26 22:35:00,
2013-07-26 12:40:00,76.7,68.1,29.99,NE,34,10.0,34.0,75,0.00,,,0.00,Weather View 32 v70,2013-07-26 22:40:00,
2013-07-26 12:46:00,77.3,68.3,29.97,North,1,25.0,34.0,74,0.00,,,0.00,Weather View 32 v70,2013-07-26 22:46:00,
2013-07-26 12:52:00,76.5,67.6,29.98,North,4,21.0,34.0,74,0.00,,,0.00,Weather View 32 v70,2013-07-26 22:52:00,
2013-07-26 12:58:00,76.6,68.0,29.99,North,1,18.0,34.0,75,0.00,,,0.00,Weather View 32 v70,2013-07-26 22:58:00,
2013-07-26 13:03:00,77.3,68.3,29.99,NNE,29,17.0,34.0,74,0.00,,,0.00,Weather View 32 v70,2013-07-26 23:03:00,
2013-07-26 13:08:00,77.5,67.7,29.98,North,351,16.0,34.0,72,0.00,,,0.00,Weather View 32 v70,2013-07-26 23:08:00,
2013-07-26 13:14:00,76.7,67.4,29.97,NNE,30,19.0,34.0,73,0.00,,,0.00,Weather View 32 v70,2013-07-26 23:14:00,
2013-07-26 13:19:00,76.8,67.5,29.98,NW,320,16.0,34.0,73,0.00,,,0.00,Weather View 32 v70,2013-07-26 23:19:00,
2013-07-26 13:20:00,76.8,67.5,29.98,NW,310,19.0,34.0,73,0.00,,,0.00,Weather View 32 v70,2013-07-26 23:20:00,
2013-07-26 13:25:00,76.9,67.5,29.99,NW,311,14.0,34.0,73,0.00,,,0.00,Weather View 32 v70,2013-07-26 23:25:00,
2013-07-26 13:28:00,76.6,67.7,29.98,North,349,15.0,34.0,74,0.00,,,0.00,Weather View 32 v70,2013-07-26 23:28:00,
2013-07-26 13:35:00,76.7,67.8,29.99,NNW,346,19.0,34.0,74,0.00,,,0.00,Weather View 32 v70,2013-07-26 23:35:00,
2013-07-26 13:45:00,76.4,67.5,29.98,NW,321,15.0,31.0,74,0.00,,,0.00,Weather View 32 v70,2013-07-26 23:45:00,
2013-07-26 13:50:00,76.0,66.7,29.97,North,357,21.0,32.0,73,0.00,,,0.00,Weather View 32 v70,2013-07-26 23:50:00,
2013-07-26 13:55:00,76.4,66.7,29.96,NNW,340,29.0,33.0,72,0.00,,,0.00,Weather View 32 v70,2013-07-26 23:55:00,
2013-07-26 14:00:00,76.6,66.9,29.96,NNE,14,25.0,33.0,72,0.00,,,0.00,Weather View 32 v70,2013-07-27 00:00:00,
2013-07-26 14:06:00,76.1,66.4,29.96,NNW,347,31.0,33.0,72,0.00,,,0.00,Weather View 32 v70,2013-07-27 00:06:00,
2013-07-26 14:11:00,76.0,66.7,29.98,North,1,25.0,33.0,73,0.00,,,0.00,Weather View 32 v70,2013-07-27 00:11:00,
2013-07-26 14:18:00,76.1,67.2,29.97,North,4,15.0,33.0,74,0.00,,,0.00,Weather View 32 v70,2013-07-27 00:18:00,
2013-07-26 14:20:00,76.0,66.7,29.97,NNE,12,18.0,33.0,73,0.00,,,0.00,Weather View 32 v70,2013-07-27 00:20:00,
2013-07-26 14:24:00,75.8,66.5,29.97,NW,326,27.0,33.0,73,0.00,,,0.00,Weather View 32 v70,2013-07-27 00:24:00,
2013-07-26 14:29:00,75.8,66.5,29.97,NNW,343,27.0,33.0,73,0.00,,,0.00,Weather View 32 v70,2013-07-27 00:29:00,
2013-07-26 14:35:00,75.4,66.1,29.98,North,350,13.0,33.0,73,0.00,,,0.00,Weather View 32 v70,2013-07-27 00:35:00,
2013-07-26 14:40:00,75.7,66.4,29.98,NNW,341,19.0,33.0,73,0.00,,,0.00,Weather View 32 v70,2013-07-27 00:40:00,
2013-07-26 14:47:00,75.8,66.5,29.98,NE,43,10.0,33.0,73,0.00,,,0.00,Weather View 32 v70,2013-07-27 00:47:00,
2013-07-26 14:53:00,75.9,66.2,29.98,North,359,14.0,33.0,72,0.00,,,0.00,Weather View 32 v70,2013-07-27 00:53:00,
2013-07-26 14:59:00,75.1,66.2,29.98,NNW,332,23.0,33.0,74,0.00,,,0.00,Weather View 32 v70,2013-07-27 00:59:00,
2013-07-26 15:05:00,75.1,66.2,29.98,North,4,20.0,33.0,74,0.00,,,0.00,Weather View 32 v70,2013-07-27 01:05:00,
2013-07-26 15:12:00,75.0,66.1,29.96,NNW,332,21.0,33.0,74,0.00,,,0.00,Weather View 32 v70,2013-07-27 01:12:00,
2013-07-26 15:18:00,75.2,66.3,29.98,NNW,341,23.0,33.0,74,0.00,,,0.00,Weather View 32 v70,2013-07-27 01:18:00,
2013-07-26 15:20:00,75.2,66.3,29.98,North,360,16.0,33.0,74,0.00,,,0.00,Weather View 32 v70,2013-07-27 01:20:00,
2013-07-26 15:24:00,75.3,66.4,29.98,NW,318,11.0,33.0,74,0.00,,,0.00,Weather View 32 v70,2013-07-27 01:24:00,
2013-07-26 15:25:00,75.5,66.6,29.98,North,4,8.0,33.0,74,0.00,,,0.00,Weather View 32 v70,2013-07-27 01:25:00,
2013-07-26 15:30:00,75.9,66.6,29.96,NNW,347,24.0,33.0,73,0.00,,,0.00,Weather View 32 v70,2013-07-27 01:30:00,
2013-07-26 15:36:00,74.8,67.1,29.98,North,353,16.0,33.0,77,0.00,,,0.00,Weather View 32 v70,2013-07-27 01:36:00,
2013-07-26 15:40:00,74.9,67.2,29.98,NNW,346,16.0,33.0,77,0.00,,,0.00,Weather View 32 v70,2013-07-27 01:40:00,
2013-07-26 15:42:00,74.9,67.5,29.98,NW,323,13.0,33.0,78,0.00,,,0.00,Weather View 32 v70,2013-07-27 01:42:00,
2013-07-26 15:48:00,74.8,67.5,29.98,NNE,22,20.0,33.0,78,0.00,,,0.00,Weather View 32 v70,2013-07-27 01:48:00,
2013-07-26 15:54:00,73.9,66.6,29.96,NNE,13,15.0,33.0,78,0.00,,,0.00,Weather View 32 v70,2013-07-27 01:54:00,
2013-07-26 15:59:00,73.8,67.6,29.98,NE,53,23.0,36.0,81,0.00,,,0.00,Weather View 32 v70,2013-07-27 01:59:00,
2013-07-26 16:04:00,74.1,67.9,29.97,North,9,19.0,36.0,81,0.00,,,0.00,Weather View 32 v70,2013-07-27 02:04:00,
2013-07-26 16:10:00,73.9,67.7,29.98,North,6,16.0,36.0,81,0.00,,,0.00,Weather View 32 v70,2013-07-27 02:10:00,
2013-07-26 16:15:00,73.8,67.6,29.98,North,353,17.0,36.0,81,0.00,,,0.00,Weather View 32 v70,2013-07-27 02:15:00,
2013-07-26 16:20:00,73.5,67.3,29.97,NNW,341,25.0,36.0,81,0.00,,,0.00,Weather View 32 v70,2013-07-27 02:20:00,
2013-07-26 16:25:00,73.5,66.9,29.98,North,356,18.0,36.0,80,0.00,,,0.00,Weather View 32 v70,2013-07-27 02:25:00,
2013-07-26 16:30:00,73.6,66.7,29.98,NNW,345,20.0,36.0,79,0.00,,,0.00,Weather View 32 v70,2013-07-27 02:30:00,
2013-07-26 16:34:00,73.7,66.8,29.98,North,355,14.0,36.0,79,0.00,,,0.00,Weather View 32 v70,2013-07-27 02:34:00,
2013-07-26 16:35:00,73.9,66.6,29.98,North,354,12.0,36.0,78,0.00,,,0.00,Weather View 32 v70,2013-07-27 02:35:00,
2013-07-26 16:39:00,74.0,66.3,29.98,NNW,332,14.0,36.0,77,0.00,,,0.00,Weather View 32 v70,2013-07-27 02:39:00,
2013-07-26 16:40:00,74.0,66.3,29.98,NNW,339,18.0,36.0,77,0.00,,,0.00,Weather View 32 v70,2013-07-27 02:40:00,
2013-07-26 16:45:00,74.2,66.1,29.98,North,352,14.0,36.0,76,0.00,,,0.00,Weather View 32 v70,2013-07-27 02:45:00,
2013-07-26 16:51:00,74.3,65.8,29.96,North,10,30.0,36.0,75,0.00,,,0.00,Weather View 32 v70,2013-07-27 02:51:00,
2013-07-26 16:56:00,74.1,65.6,29.97,NNW,330,22.0,36.0,75,0.00,,,0.00,Weather View 32 v70,2013-07-27 02:56:00,
2013-07-26 17:02:00,74.0,65.9,29.98,North,358,13.0,31.0,76,0.00,,,0.00,Weather View 32 v70,2013-07-27 03:02:00,
2013-07-26 17:07:00,74.1,66.4,29.98,NNW,334,26.0,31.0,77,0.00,,,0.00,Weather View 32 v70,2013-07-27 03:07:00,
2013-07-26 17:12:00,73.8,66.9,29.96,NNW,337,18.0,31.0,79,0.00,,,0.00,Weather View 32 v70,2013-07-27 03:12:00,
2013-07-26 17:17:00,73.5,67.3,29.97,NNW,342,24.0,32.0,81,0.00,,,0.00,Weather View 32 v70,2013-07-27 03:17:00,
2013-07-26 17:22:00,73.2,67.4,29.97,North,352,30.0,34.0,82,0.00,,,0.00,Weather View 32 v70,2013-07-27 03:22:00,
2013-07-26 17:27:00,73.0,67.2,29.97,North,360,31.0,35.0,82,0.00,,,0.00,Weather View 32 v70,2013-07-27 03:27:00,
2013-07-26 17:32:00,72.9,66.7,29.98,NNW,345,16.0,35.0,81,0.00,,,0.00,Weather View 32 v70,2013-07-27 03:32:00,
2013-07-26 17:37:00,73.1,66.2,29.97,North,357,26.0,35.0,79,0.00,,,0.00,Weather View 32 v70,2013-07-27 03:37:00,
2013-07-26 17:42:00,73.3,66.4,29.99,NNW,337,12.0,35.0,79,0.00,,,0.00,Weather View 32 v70,2013-07-27 03:42:00,
2013-07-26 17:47:00,73.3,66.0,29.98,NW,304,22.0,35.0,78,0.00,,,0.00,Weather View 32 v70,2013-07-27 03:47:00,
2013-07-26 17:52:00,73.3,66.0,29.98,NNE,20,29.0,35.0,78,0.00,,,0.00,Weather View 32 v70,2013-07-27 03:52:00,
2013-07-26 17:57:00,73.3,65.6,29.98,NNE,19,13.0,35.0,77,0.00,,,0.00,Weather View 32 v70,2013-07-27 03:57:00,
2013-07-26 18:01:00,73.4,65.7,29.98,North,352,31.0,35.0,77,0.00,,,0.00,Weather View 32 v70,2013-07-27 04:01:00,
2013-07-26 18:02:00,73.3,66.0,29.97,North,7,18.0,35.0,78,0.00,,,0.00,Weather View 32 v70,2013-07-27 04:02:00,
2013-07-26 18:03:00,73.3,66.0,29.97,NW,315,15.0,35.0,78,0.00,,,0.00,Weather View 32 v70,2013-07-27 04:03:00,
2013-07-26 18:08:00,73.2,66.3,29.97,NNW,332,28.0,35.0,79,0.00,,,0.00,Weather View 32 v70,2013-07-27 04:08:00,
2013-07-26 18:13:00,73.1,66.2,29.99,NNW,335,31.0,35.0,79,0.00,,,0.00,Weather View 32 v70,2013-07-27 04:13:00,
2013-07-26 18:18:00,73.0,66.1,29.98,NNE,14,11.0,37.0,79,0.00,,,0.00,Weather View 32 v70,2013-07-27 04:18:00,
2013-07-26 18:23:00,73.0,66.1,29.99,NW,307,14.0,37.0,79,0.00,,,0.00,Weather View 32 v70,2013-07-27 04:23:00,
2013-07-26 18:28:00,73.1,65.8,29.99,WNW,303,14.0,37.0,78,0.00,,,0.00,Weather View 32 v70,2013-07-27 04:28:00,
2013-07-26 18:33:00,73.1,65.4,29.99,NNW,337,20.0,37.0,77,0.00,,,0.00,Weather View 32 v70,2013-07-27 04:33:00,
2013-07-26 18:38:00,73.0,65.0,29.99,NW,324,16.0,37.0,76,0.00,,,0.00,Weather View 32 v70,2013-07-27 04:38:00,
2013-07-26 18:43:00,73.2,64.8,30.00,NNW,345,25.0,37.0,75,0.00,,,0.00,Weather View 32 v70,2013-07-27 04:43:00,
2013-07-26 18:48:00,73.2,65.2,30.00,NNW,345,22.0,37.0,76,0.00,,,0.00,Weather View 32 v70,2013-07-27 04:48:00,
2013-07-26 18:53:00,73.2,65.5,29.99,NNW,333,30.0,37.0,77,0.00,,,0.00,Weather View 32 v70,2013-07-27 04:53:00,
2013-07-26 18:58:00,73.0,65.7,30.00,North,359,19.0,41.0,78,0.00,,,0.00,Weather View 32 v70,2013-07-27 04:58:00,
2013-07-26 19:03:00,73.0,65.7,30.01,North,357,18.0,41.0,78,0.00,,,0.00,Weather View 32 v70,2013-07-27 05:03:00,
2013-07-26 19:08:00,72.9,66.0,30.00,North,360,23.0,41.0,79,0.00,,,0.00,Weather View 32 v70,2013-07-27 05:08:00,
2013-07-26 19:13:00,72.7,66.1,30.01,NW,323,13.0,41.0,80,0.00,,,0.00,Weather View 32 v70,2013-07-27 05:13:00,
2013-07-26 19:18:00,72.7,66.5,30.01,North,8,14.0,41.0,81,0.00,,,0.00,Weather View 32 v70,2013-07-27 05:18:00,
2013-07-26 19:23:00,72.6,66.8,30.02,North,10,24.0,41.0,82,0.00,,,0.00,Weather View 32 v70,2013-07-27 05:23:00,
2013-07-26 19:28:00,72.4,66.9,30.02,NNW,332,15.0,41.0,83,0.00,,,0.00,Weather View 32 v70,2013-07-27 05:28:00,
2013-07-26 19:33:00,72.4,66.9,30.00,North,359,25.0,41.0,83,0.00,,,0.00,Weather View 32 v70,2013-07-27 05:33:00,
2013-07-26 19:38:00,72.5,66.3,30.01,North,359,20.0,41.0,81,0.00,,,0.00,Weather View 32 v70,2013-07-27 05:38:00,
2013-07-26 19:43:00,72.8,65.9,30.01,North,351,17.0,41.0,79,0.00,,,0.00,Weather View 32 v70,2013-07-27 05:43:00,
2013-07-26 19:48:00,73.0,65.7,30.01,North,350,14.0,41.0,78,0.00,,,0.00,Weather View 32 v70,2013-07-27 05:48:00,
2013-07-26 19:53:00,73.3,64.9,30.00,NNW,334,23.0,41.0,75,0.00,,,0.00,Weather View 32 v70,2013-07-27 05:53:00,
2013-07-26 19:58:00,73.4,65.0,30.00,North,357,22.0,34.0,75,0.00,,,0.00,Weather View 32 v70,2013-07-27 05:58:00,
2013-07-26 20:03:00,73.3,64.9,30.01,NNW,334,22.0,34.0,75,0.00,,,0.00,Weather View 32 v70,2013-07-27 06:03:00,
2013-07-26 20:08:00,73.2,65.2,30.02,NW,325,14.0,34.0,76,0.00,,,0.00,Weather View 32 v70,2013-07-27 06:08:00,
2013-07-26 20:13:00,73.1,65.4,30.01,NNW,328,24.0,35.0,77,0.00,,,0.00,Weather View 32 v70,2013-07-27 06:13:00,
2013-07-26 20:18:00,72.9,65.6,30.01,NNW,332,23.0,37.0,78,0.00,,,0.00,Weather View 32 v70,2013-07-27 06:18:00,
2013-07-26 20:23:00,73.0,65.3,30.01,NNW,347,20.0,38.0,77,0.00,,,0.00,Weather View 32 v70,2013-07-27 06:23:00,
2013-07-26 20:28:00,72.9,65.2,30.02,NNW,330,24.0,38.0,77,0.00,,,0.00,Weather View 32 v70,2013-07-27 06:28:00,
2013-07-26 20:33:00,72.9,65.2,30.02,North,358,20.0,38.0,77,0.00,,,0.00,Weather View 32 v70,2013-07-27 06:33:00,
2013-07-26 20:38:00,72.9,65.2,30.03,NNW,342,13.0,38.0,77,0.00,,,0.00,Weather View 32 v70,2013-07-27 06:38:00,
2013-07-26 20:43:00,72.6,65.3,30.02,NNW,332,19.0,38.0,78,0.00,,,0.00,Weather View 32 v70,2013-07-27 06:43:00,
2013-07-26 20:48:00,72.6,65.3,30.03,NNE,15,26.0,38.0,78,0.00,,,0.00,Weather View 32 v70,2013-07-27 06:48:00,
2013-07-26 20:53:00,72.6,64.9,30.02,North,354,22.0,38.0,77,0.00,,,0.00,Weather View 32 v70,2013-07-27 06:53:00,
2013-07-26 20:58:00,72.6,64.6,30.03,NNW,339,26.0,38.0,76,0.00,,,0.00,Weather View 32 v70,2013-07-27 06:58:00,
2013-07-26 21:03:00,72.6,64.2,30.03,NNW,334,17.0,38.0,75,0.00,,,0.00,Weather View 32 v70,2013-07-27 07:03:00,
2013-07-26 21:08:00,73.2,64.0,30.04,NNW,333,16.0,42.0,73,0.00,,,0.00,Weather View 32 v70,2013-07-27 07:08:00,
2013-07-26 21:13:00,73.1,64.3,30.04,NW,325,29.0,42.0,74,0.00,,,0.00,Weather View 32 v70,2013-07-27 07:13:00,
2013-07-26 21:18:00,72.9,64.1,30.04,NNW,327,23.0,42.0,74,0.00,,,0.00,Weather View 32 v70,2013-07-27 07:18:00,
2013-07-26 21:23:00,73.0,64.2,30.04,NNW,337,22.0,42.0,74,0.00,,,0.00,Weather View 32 v70,2013-07-27 07:23:00,
2013-07-26 21:28:00,72.6,64.6,30.06,North,9,20.0,42.0,76,0.00,,,0.00,Weather View 32 v70,2013-07-27 07:28:00,
2013-07-26 21:33:00,72.4,64.8,30.05,NNW,332,21.0,42.0,77,0.00,,,0.00,Weather View 32 v70,2013-07-27 07:33:00,
2013-07-26 21:38:00,72.5,64.5,30.04,North,360,18.0,42.0,76,0.00,,,0.00,Weather View 32 v70,2013-07-27 07:38:00,
2013-07-26 21:43:00,72.6,64.2,30.05,North,1,16.0,42.0,75,0.00,,,0.00,Weather View 32 v70,2013-07-27 07:43:00,
2013-07-26 21:48:00,72.6,64.2,30.05,NNW,337,21.0,42.0,75,0.00,,,0.00,Weather View 32 v70,2013-07-27 07:48:00,
2013-07-26 21:53:00,72.7,63.9,30.05,North,355,27.0,42.0,74,0.00,,,0.00,Weather View 32 v70,2013-07-27 07:53:00,
2013-07-26 21:58:00,72.9,63.7,30.05,North,350,20.0,42.0,73,0.00,,,0.00,Weather View 32 v70,2013-07-27 07:58:00,
2013-07-26 22:03:00,72.6,63.8,30.05,NNW,345,24.0,42.0,74,0.00,,,0.00,Weather View 32 v70,2013-07-27 08:03:00,
2013-07-26 22:08:00,72.5,64.1,30.05,NNW,336,23.0,35.0,75,0.00,,,0.00,Weather View 32 v70,2013-07-27 08:08:00,
2013-07-26 22:13:00,72.4,64.4,30.05,NNW,343,24.0,33.0,76,0.00,,,0.00,Weather View 32 v70,2013-07-27 08:13:00,
2013-07-26 22:18:00,72.4,64.4,30.06,NE,56,19.0,33.0,76,0.00,,,0.00,Weather View 32 v70,2013-07-27 08:18:00,
2013-07-26 22:23:00,72.3,64.7,30.05,NNW,345,26.0,33.0,77,0.00,,,0.00,Weather View 32 v70,2013-07-27 08:23:00,
2013-07-26 22:28:00,72.6,64.2,30.03,North,7,21.0,33.0,75,0.00,,,0.00,Weather View 32 v70,2013-07-27 08:28:00,
2013-07-26 22:33:00,72.9,63.3,30.06,NNE,33,21.0,34.0,72,0.00,,,0.00,Weather View 32 v70,2013-07-27 08:33:00,
2013-07-26 22:38:00,73.0,63.0,30.05,North,356,16.0,34.0,71,0.00,,,0.00,Weather View 32 v70,2013-07-27 08:38:00,
2013-07-26 22:43:00,73.3,62.9,30.05,North,353,21.0,34.0,70,0.00,,,0.00,Weather View 32 v70,2013-07-27 08:43:00,
2013-07-26 22:48:00,73.1,62.7,30.04,North,357,20.0,34.0,70,0.00,,,0.00,Weather View 32 v70,2013-07-27 08:48:00,
2013-07-26 22:53:00,73.1,63.1,30.05,NNW,343,32.0,34.0,71,0.00,,,0.00,Weather View 32 v70,2013-07-27 08:53:00,
2013-07-26 22:58:00,72.8,63.2,30.05,North,359,28.0,35.0,72,0.00,,,0.00,Weather View 32 v70,2013-07-27 08:58:00,
2013-07-26 23:03:00,72.6,64.2,30.06,North,1,25.0,35.0,75,0.00,,,0.00,Weather View 32 v70,2013-07-27 09:03:00,
2013-07-26 23:08:00,72.3,64.3,30.06,NNE,16,25.0,35.0,76,0.00,,,0.00,Weather View 32 v70,2013-07-27 09:08:00,
2013-07-26 23:13:00,72.3,64.3,30.06,North,353,31.0,35.0,76,0.00,,,0.00,Weather View 32 v70,2013-07-27 09:13:00,
2013-07-26 23:18:00,72.8,64.0,30.02,NNW,339,28.0,35.0,74,0.00,,,0.00,Weather View 32 v70,2013-07-27 09:18:00,
2013-07-26 23:23:00,73.1,63.9,30.04,NNW,346,29.0,35.0,73,0.00,,,0.00,Weather View 32 v70,2013-07-27 09:23:00,
2013-07-26 23:28:00,73.2,64.0,30.02,NNW,347,33.0,35.0,73,0.00,,,0.00,Weather View 32 v70,2013-07-27 09:28:00,
2013-07-26 23:33:00,73.2,63.6,30.04,North,359,28.0,40.0,72,0.00,,,0.00,Weather View 32 v70,2013-07-27 09:33:00,
2013-07-26 23:38:00,73.2,63.6,30.03,North,6,28.0,40.0,72,0.00,,,0.00,Weather View 32 v70,2013-07-27 09:38:00,
2013-07-26 23:43:00,73.0,63.4,30.05,NW,314,14.0,40.0,72,0.00,,,0.00,Weather View 32 v70,2013-07-27 09:43:00,
2013-07-26 23:48:00,73.0,63.8,30.04,NNE,31,13.0,40.0,73,0.00,,,0.00,Weather View 32 v70,2013-07-27 09:48:00,
2013-07-26 23:53:00,72.9,64.1,30.03,North,6,20.0,40.0,74,0.00,,,0.00,Weather View 32 v70,2013-07-27 09:53:00,
2013-07-26 23:58:00,72.8,64.4,30.05,NNE,19,18.0,40.0,75,0.00,,,0.00,Weather View 32 v70,2013-07-27 09:58:00,